Data for 07/23/2010

Time Sea-Level Adjusted Pressure Absolute Pressure Temperature Relative Humidity Dew Point   
(mb) (inHg) (mb) (inHg) (C) (F) (%) (C) (F)
00:05 1014 29.94 843 24.89 18.8 65.8 40 5 41
00:10 1014 29.94 843 24.89 19 66.2 42 6.1 43
00:15 1014 29.94 843 24.89 18.9 66 43 6.2 43.2
00:20 1014 29.94 843 24.89 18.8 65.8 45 6.6 43.8
00:25 1014 29.94 843 24.89 18.3 64.9 44 6.1 43
00:30 1014 29.94 843 24.89 18.2 64.7 49 7.3 45.1
00:35 1014 29.94 843 24.89 18.1 64.6 46 6.4 43.5
00:40 1014 29.94 843 24.89 18.2 64.7 48 7.2 45
00:45 1014 29.94 843 24.89 18.1 64.5 45 6.1 43
00:50 1014 29.94 843 24.89 18 64.3 45 6.1 43
00:55 1014 29.94 843 24.89 17.6 63.7 46 6 42.9
01:00 1014 29.94 843 24.89 17.5 63.6 47 6.1 43
01:05 1014 29.94 843 24.89 17.4 63.2 47 6.2 43.2
01:10 1014 29.94 843 24.89 17.2 62.9 49 6.4 43.5
01:15 1014 29.94 843 24.89 16.8 62.3 49 6.1 43
01:20 1014 29.94 843 24.89 16.8 62.2 47 5.6 42.1
01:25 1014 29.94 843 24.89 16.8 62.2 50 6.3 43.3
01:30 1014 29.94 843 24.89 16.6 61.9 49 6 42.8
01:35 1014 29.94 843 24.89 16.6 61.9 49 5.8 42.5
01:40 1014 29.94 843 24.89 16.5 61.7 48 5.7 42.3
01:45 1014 29.94 843 24.89 16.4 61.4 51 6.2 43.1
01:50 1014 29.94 843 24.89 16 60.8 50 5.8 42.4
01:55 1014 29.94 843 24.89 16.2 61.1 49 5.6 42.1
02:00 1014 29.94 843 24.89 16.3 61.3 50 5.8 42.5
02:05 1014 29.94 843 24.89 16 60.8 50 5.7 42.3
02:10 1014 29.94 843 24.89 16 60.7 49 5.3 41.5
02:15 1014 29.94 843 24.89 16.1 60.9 51 5.9 42.6
02:20 1014 29.94 843 24.89 16 60.8 50 5.6 42.2
02:25 1014 29.94 843 24.89 15.8 60.5 52 6 42.8
02:30 1014 29.94 843 24.89 15.6 60.1 52 5.8 42.5
02:35 1014 29.94 843 24.89 15.5 60 53 6.2 43.1
02:40 1014 29.94 844 24.92 15.4 59.8 55 6.5 43.7
02:45 1014 29.94 844 24.92 15.4 59.6 55 6.4 43.6
02:50 1014 29.94 844 24.92 15.4 59.7 56 6.7 44.1
02:55 1014 29.94 844 24.92 14.9 58.8 58 6.8 44.2
03:00 1014 29.94 844 24.92 14.4 57.8 60 6.7 44
03:05 1014 29.94 844 24.92 14.2 57.5 60 6.6 43.8
03:10 1015 29.97 844 24.92 14.3 57.8 59 6.4 43.5
03:15 1015 29.97 844 24.92 14.3 57.8 59 6.4 43.6
03:20 1015 29.97 844 24.92 14.3 57.7 58 6.3 43.4
03:25 1015 29.97 844 24.92 14.4 57.8 58 6.3 43.3
03:30 1015 29.97 844 24.92 14.4 57.9 56 5.9 42.6
03:35 1015 29.97 844 24.92 14.5 58.1 56 6 42.7
03:40 1015 29.97 844 24.92 14.6 58.2 58 6.5 43.6
03:45 1015 29.97 844 24.92 14.7 58.5 56 6 42.8
03:50 1015 29.97 844 24.92 14.7 58.4 55 5.7 42.3
03:55 1015 29.97 844 24.92 14.8 58.6 55 6 42.7
04:00 1015 29.97 844 24.92 14.9 58.9 57 6.5 43.7
04:05 1015 29.97 844 24.92 14.9 58.8 56 6.3 43.4
04:10 1015 29.97 844 24.92 14.9 58.7 57 6.4 43.5
04:15 1015 29.97 844 24.92 14.8 58.6 57 6.4 43.6
04:20 1015 29.97 844 24.92 14.6 58.4 59 6.8 44.2
04:25 1015 29.97 844 24.92 14.7 58.4 56 6.1 43
04:30 1015 29.97 845 24.95 14.7 58.5 55 5.8 42.4
04:35 1015 29.97 845 24.95 14.9 58.8 53 5.6 42
04:40 1016 30 845 24.95 14.9 58.9 57 6.4 43.6
04:45 1016 30 845 24.95 14.5 58.1 58 6.3 43.3
04:50 1016 30 845 24.95 14.5 58.1 57 6.1 42.9
04:55 1016 30 845 24.95 14.9 58.7 55 6 42.9
05:00 1016 30 845 24.95 15 59.1 55 6.2 43.1
05:05 1016 30 845 24.95 14.9 58.9 54 5.9 42.6
05:10 1016 30 845 24.95 15.1 59.1 53 5.8 42.4
05:15 1016 30 845 24.95 15.2 59.4 52 5.6 42.1
05:20 1016 30 845 24.95 15.2 59.4 53 5.7 42.3
05:25 1016 30 845 24.95 15.1 59.2 53 5.6 42.1
05:30 1016 30 845 24.95 15.1 59.2 54 6 42.8
05:35 1016 30 846 24.98 15.1 59.1 54 5.9 42.7
05:40 1016 30 846 24.98 15 59 56 6.4 43.5
05:45 1017 30.03 846 24.98 14.7 58.4 57 6.4 43.5
05:50 1017 30.03 846 24.98 14.5 58.1 57 6.2 43.2
05:55 1017 30.03 846 24.98 14.6 58.3 57 6.3 43.3
06:00 1017 30.03 846 24.98 14.7 58.4 55 5.8 42.4
06:05 1017 30.03 846 24.98 15 58.9 53 5.7 42.2
06:10 1017 30.03 846 24.98 15.2 59.4 53 5.7 42.2
06:15 1017 30.03 846 24.98 15.4 59.6 53 5.8 42.4
06:20 1017 30.03 846 24.98 15.4 59.8 52 5.7 42.3
06:25 1017 30.03 846 24.98 15.5 59.9 52 5.8 42.4
06:30 1017 30.03 846 24.98 15.8 60.4 50 5.5 41.9
06:35 1017 30.03 847 25.01 16.1 60.9 49 5.6 42
06:40 1018 30.06 847 25.01 16.1 61.1 50 5.7 42.3
06:45 1018 30.06 847 25.01 16.2 61.1 49 5.6 42.1
06:50 1018 30.06 847 25.01 16.4 61.5 49 5.8 42.4
06:55 1018 30.06 847 25.01 16.6 61.8 48 5.7 42.3
07:00 1018 30.06 847 25.01 16.7 62 49 5.9 42.6
07:05 1018 30.06 847 25.01 16.7 62.1 48 5.9 42.6
07:10 1018 30.06 847 25.01 17 62.6 47 5.9 42.6
07:15 1018 30.06 847 25.01 17.4 63.3 46 5.7 42.3
07:20 1018 30.06 847 25.01 17.6 63.7 46 6 42.8
07:25 1018 30.06 847 25.01 16.7 62.1 52 6.9 44.5
07:30 1018 30.06 847 25.01 16.1 61 53 6.5 43.7
07:35 1018 30.06 847 25.01 16.1 61 54 6.8 44.2
07:40 1018 30.06 847 25.01 16.1 61.1 54 7 44.6
07:45 1018 30.06 847 25.01 16.4 61.4 53 6.8 44.3
07:50 1018 30.06 847 25.01 16.4 61.5 52 6.5 43.7
07:55 1018 30.06 847 25.01 16.7 62.1 49 6.2 43.1
08:00 1018 30.06 848 25.04 16.9 62.4 48 6 42.8
08:05 1018 30.06 848 25.04 17.1 62.8 47 5.8 42.5
08:10 1018 30.06 848 25.04 17.5 63.5 47 6.1 42.9
08:15 1018 30.06 848 25.04 17.6 63.6 46 5.9 42.6
08:20 1019 30.09 848 25.04 17.9 64.1 44 5.5 41.8
08:25 1019 30.09 848 25.04 18 64.4 40 4.5 40.1
08:30 1019 30.09 848 25.04 18.5 65.3 40 4.8 40.6
08:35 1019 30.09 848 25.04 18.5 65.4 39 4.6 40.3
08:40 1019 30.09 848 25.04 18.8 65.8 38 4.4 39.9
08:45 1019 30.09 848 25.04 19.2 66.6 35 3.4 38.1
08:50 1019 30.09 848 25.04 19.2 66.5 36 4 39.2
08:55 1019 30.09 848 25.04 19.8 67.6 34 3.4 38.1
09:00 1019 30.09 848 25.04 19.6 67.2 34 3.4 38.2
09:05 1019 30.09 848 25.04 19.4 66.9 32 2.6 36.7
09:10 1019 30.09 848 25.04 19.2 66.6 33 2.8 37
09:15 1019 30.09 848 25.04 19.3 66.7 34 3 37.5
09:20 1019 30.09 848 25.04 19.5 67 34 3.4 38.1
09:25 1019 30.09 848 25.04 19.3 66.8 34 3 37.4
09:30 1019 30.09 848 25.04 19.3 66.8 32 2.6 36.7
09:35 1019 30.09 848 25.04 19.4 66.9 34 3.1 37.6
09:40 1019 30.09 848 25.04 19.6 67.2 33 3.1 37.5
09:45 1019 30.09 848 25.04 19.3 66.8 34 3.2 37.8
09:50 1019 30.09 849 25.07 19.2 66.5 33 2.6 36.7
09:55 1019 30.09 849 25.07 19.7 67.4 32 2.9 37.2
10:00 1019 30.09 849 25.07 19.8 67.7 33 3.3 38
10:05 1019 30.09 849 25.07 20.2 68.3 30 2.3 36.2
10:10 1019 30.09 849 25.07 19.9 67.8 31 2.3 36.2
10:15 1019 30.09 849 25.07 19.8 67.7 29 1.6 34.9
10:20 1019 30.09 848 25.04 19.7 67.4 29 1.3 34.4
10:25 1019 30.09 848 25.04 19.6 67.4 29 1.4 34.5
10:30 1019 30.09 849 25.07 19.9 67.9 28 1.2 34.2
10:35 1019 30.09 849 25.07 20.1 68.1 29 1.5 34.7
10:40 1020 30.12 849 25.07 20.4 68.8 28 1.4 34.5
10:45 1020 30.12 849 25.07 20.4 68.7 27 1.1 34
10:50 1020 30.12 849 25.07 20.5 68.8 30 2.3 36.2
10:55 1020 30.12 849 25.07 20.8 69.4 27 1.3 34.3
11:00 1020 30.12 849 25.07 20.7 69.2 27 1 33.8
11:05 1020 30.12 849 25.07 20.5 68.9 27 1.1 34
11:10 1020 30.12 849 25.07 20.5 68.8 27 1.1 34
11:15 1020 30.12 849 25.07 20.9 69.6 26 0.9 33.6
11:20 1020 30.12 849 25.07 21 69.9 29 2.5 36.5
11:25 1020 30.12 849 25.07 20.7 69.2 28 1.9 35.4
11:30 1020 30.12 849 25.07 20.7 69.2 27 1.1 34
11:35 1020 30.12 849 25.07 20.8 69.5 27 1.3 34.4
11:40 1020 30.12 849 25.07 21.1 69.9 27 1.3 34.3
11:45 1020 30.12 849 25.07 21.3 70.3 26 1.4 34.5
11:50 1020 30.12 849 25.07 21 69.9 27 1.7 35
11:55 1020 30.12 849 25.07 21.4 70.5 25 0.5 32.9
12:00 1020 30.12 849 25.07 21.6 70.9 25 0.8 33.5
12:05 1020 30.12 849 25.07 21.8 71.2 25 1.2 34.2
12:10 1020 30.12 849 25.07 22.2 72 25 1.2 34.2
12:15 1020 30.12 849 25.07 22.3 72.1 25 1.6 34.9
12:20 1020 30.12 850 25.1 22.3 72.2 24 1.2 34.2
12:25 1020 30.12 850 25.1 22 71.7 25 1.6 34.8
12:30 1020 30.12 850 25.1 22 71.5 24 0.9 33.6
12:35 1020 30.12 850 25.1 22.7 72.8 25 1.8 35.3
12:40 1021 30.15 850 25.1 23.4 74.1 25 2.3 36.1
12:45 1021 30.15 850 25.1 22.9 73.3 25 1.8 35.3
12:50 1021 30.15 850 25.1 22.3 72.1 25 1.7 35.1
12:55 1021 30.15 850 25.1 22 71.5 26 1.7 35
13:00 1021 30.15 850 25.1 22.2 72 26 1.9 35.4
13:05 1021 30.15 850 25.1 22.4 72.3 24 0.8 33.4
13:10 1021 30.15 850 25.1 22.6 72.6 25 1.6 34.8
13:15 1021 30.15 850 25.1 22.3 72.1 25 1.3 34.3
13:20 1021 30.15 850 25.1 22.1 71.8 24 0.8 33.4
13:25 1021 30.15 850 25.1 22.6 72.6 25 1.5 34.7
13:30 1021 30.15 850 25.1 22.6 72.7 25 1.6 34.9
13:35 1021 30.15 850 25.1 23.1 73.6 24 1.7 35
13:40 1021 30.15 850 25.1 23.1 73.5 24 1.7 35
13:45 1021 30.15 850 25.1 23.1 73.6 23 1.3 34.4
13:50 1021 30.15 850 25.1 23.2 73.8 24 1.6 34.9
13:55 1021 30.15 850 25.1 22.8 73 24 1.5 34.7
14:00 1021 30.15 850 25.1 22.9 73.3 24 1.5 34.7
14:05 1021 30.15 850 25.1 23.1 73.7 23 1 33.9
14:10 1021 30.15 850 25.1 23.3 73.9 24 1.6 35
14:15 1021 30.15 850 25.1 23 73.4 24 1.3 34.3
14:20 1021 30.15 850 25.1 22.9 73.3 24 1.4 34.5
14:25 1021 30.15 850 25.1 23.4 74.2 23 1.2 34.2
14:30 1021 30.15 850 25.1 23.7 74.7 22 1 33.8
14:35 1021 30.15 850 25.1 24 75.2 23 1.7 35.1
14:40 1021 30.15 850 25.1 23.9 75 24 2.2 36
14:45 1021 30.15 850 25.1 23.8 74.9 23 1.8 35.2
14:50 1021 30.15 850 25.1 23.6 74.4 23 1.3 34.3
14:55 1021 30.15 850 25.1 23.5 74.3 23 1.1 34
15:00 1021 30.15 850 25.1 23.8 74.8 22 1.3 34.3
15:05 1021 30.15 850 25.1 24.3 75.8 22 1.4 34.5
15:10 1021 30.15 850 25.1 24.1 75.4 23 2.1 35.7
15:15 1021 30.15 850 25.1 23.7 74.7 23 1.6 34.9
15:20 1021 30.15 850 25.1 22.8 73 26 2.3 36.2
15:25 1021 30.15 850 25.1 21.6 70.8 26 1.7 35.1
15:30 1021 30.15 850 25.1 22.7 72.9 24 1.5 34.8
15:35 1021 30.15 850 25.1 23.2 73.8 23 1.3 34.3
15:40 1021 30.15 850 25.1 24 75.1 23 1.6 34.9
15:45 1021 30.15 850 25.1 24.6 76.2 22 1.9 35.5
15:50 1021 30.15 850 25.1 24.4 75.9 23 2.1 35.8
15:55 1021 30.15 850 25.1 23.7 74.7 23 1.6 34.9
16:00 1021 30.15 850 25.1 24.4 76 23 2.2 35.9
16:05 1021 30.15 850 25.1 24.4 75.8 23 2.1 35.9
16:10 1021 30.15 850 25.1 24 75.3 23 1.8 35.3
16:15 1021 30.15 850 25.1 23.9 75.1 23 1.9 35.3
16:20 1021 30.15 850 25.1 24.5 76.2 22 1.8 35.3
16:25 1021 30.15 850 25.1 24.4 75.9 23 2.2 36
16:30 1021 30.15 850 25.1 24.4 75.8 22 1.6 34.8
16:35 1021 30.15 850 25.1 24.2 75.6 23 2 35.6
16:40 1021 30.15 850 25.1 24.5 76 23 2.2 35.9
16:45 1021 30.15 851 25.13 24.4 76 23 2.1 35.7
16:50 1021 30.15 850 25.1 24.8 76.6 23 2.4 36.3
16:55 1021 30.15 851 25.13 24.8 76.6 22 1.8 35.3
17:00 1021 30.15 850 25.1 24.7 76.4 23 2.2 35.9
17:05 1021 30.15 851 25.13 24.5 76.1 23 2.1 35.7
17:10 1021 30.15 851 25.13 24.6 76.3 22 1.8 35.2
17:15 1021 30.15 851 25.13 24.7 76.4 24 2.8 37
17:20 1021 30.15 851 25.13 24.5 76 23 2.3 36.2
17:25 1021 30.15 851 25.13 24.3 75.7 23 2.1 35.7
17:30 1021 30.15 850 25.1 24 75.2 23 2 35.7
17:35 1021 30.15 851 25.13 24.6 76.2 23 2.1 35.8
17:40 1021 30.15 851 25.13 24.5 76 23 2.5 36.5
17:45 1021 30.15 851 25.13 23.8 74.9 24 2.3 36.2
17:50 1021 30.15 851 25.13 23.4 74.2 25 2.3 36.1
17:55 1021 30.15 851 25.13 23.4 74.1 24 1.7 35.1
18:00 1021 30.15 851 25.13 23.2 73.7 25 2.2 36
18:05 1021 30.15 851 25.13 23.2 73.8 26 3 37.4
18:10 1021 30.15 851 25.13 24.1 75.4 23 2.2 36
18:15 1021 30.15 851 25.13 24.4 75.8 23 1.8 35.3
18:20 1021 30.15 851 25.13 24 75.2 26 3.3 37.9
18:25 1021 30.15 851 25.13 23.2 73.8 25 2.5 36.5
18:30 1021 30.15 851 25.13 23.4 74.2 25 2.7 36.9
18:35 1021 30.15 851 25.13 23.4 74.1 25 2.7 36.9
18:40 1021 30.15 851 25.13 23.3 73.9 26 2.6 36.8
18:45 1021 30.15 851 25.13 22.9 73.2 26 2.6 36.7
18:50 1021 30.15 851 25.13 22.9 73.2 26 2.6 36.7
18:55 1021 30.15 851 25.13 22.9 73.3 25 2 35.5
19:00 1021 30.15 851 25.13 22.9 73.1 27 2.9 37.1
19:05 1021 30.15 851 25.13 23 73.4 25 2.1 35.7
19:10 1021 30.15 851 25.13 22.7 72.9 26 2.4 36.3
19:15 1021 30.15 851 25.13 22.8 73 25 2.2 35.9
19:20 1021 30.15 851 25.13 22.9 73.2 26 2.6 36.6
19:25 1021 30.15 851 25.13 22.2 71.9 28 2.8 37
19:30 1021 30.15 851 25.13 22.4 72.3 27 2.7 36.9
19:35 1022 30.18 851 25.13 22.6 72.6 26 2.5 36.5
19:40 1021 30.15 851 25.13 22.6 72.6 26 2.5 36.4
19:45 1022 30.18 851 25.13 22.4 72.4 27 2.7 36.9
19:50 1022 30.18 851 25.13 22.3 72.1 29 3.4 38
19:55 1022 30.18 851 25.13 22.2 72 28 2.9 37.2
20:00 1022 30.18 851 25.13 22.2 72 28 2.9 37.2
20:05 1022 30.18 851 25.13 22.1 71.7 28 2.9 37.2
20:10 1022 30.18 851 25.13 21.8 71.2 30 3.4 38.1
20:15 1022 30.18 851 25.13 21.5 70.7 30 3.3 37.9
20:20 1022 30.18 851 25.13 21.4 70.6 30 3.1 37.6
20:25 1022 30.18 851 25.13 21.3 70.3 30 3.1 37.6
20:30 1022 30.18 851 25.13 21.2 70.1 30 2.9 37.2
20:35 1022 30.18 851 25.13 21.2 70.1 30 3.1 37.6
20:40 1022 30.18 851 25.13 21.1 70 30 3 37.5
20:45 1022 30.18 851 25.13 21 69.7 30 3.1 37.5
20:50 1022 30.18 851 25.13 20.8 69.4 30 2.9 37.3
20:55 1022 30.18 851 25.13 20.7 69.3 31 3 37.4
21:00 1022 30.18 851 25.13 20.6 69 32 3.5 38.2
21:05 1022 30.18 851 25.13 20.3 68.5 32 3.4 38.1
21:10 1022 30.18 851 25.13 20.1 68.2 33 3.7 38.6
21:15 1022 30.18 851 25.13 19.9 67.8 42 6.8 44.2
21:20 1022 30.18 851 25.13 18.7 65.7 45 6.8 44.2
21:25 1022 30.18 851 25.13 17.8 64 47 6.4 43.5
21:30 1022 30.18 851 25.13 17.5 63.5 50 7.1 44.8
21:35 1022 30.18 851 25.13 17.1 62.8 51 6.9 44.5
21:40 1022 30.18 851 25.13 16.9 62.3 49 6.2 43.2
21:45 1022 30.18 851 25.13 16.8 62.3 48 6 42.8
21:50 1022 30.18 851 25.13 16.9 62.4 48 5.8 42.5
21:55 1022 30.18 852 25.16 17.1 62.9 48 6.1 42.9
22:00 1022 30.18 852 25.16 17.5 63.4 47 6.1 43
22:05 1022 30.18 852 25.16 17.6 63.6 47 6.4 43.4
22:10 1022 30.18 852 25.16 17.3 63.1 48 6.4 43.5
22:15 1022 30.18 852 25.16 17.3 63.2 48 6.4 43.6
22:20 1022 30.18 852 25.16 17.3 63.2 49 6.7 44.1
22:25 1022 30.18 852 25.16 17.2 63 50 6.9 44.4
22:30 1022 30.18 852 25.16 17.1 62.8 51 6.9 44.4
22:35 1022 30.18 852 25.16 17 62.6 52 7.1 44.8
22:40 1023 30.21 852 25.16 16.7 62 53 7.1 44.8
22:45 1023 30.21 852 25.16 16.5 61.6 53 6.9 44.5
22:50 1023 30.21 852 25.16 16.5 61.6 53 7 44.5
22:55 1023 30.21 852 25.16 16.4 61.5 54 7.1 44.8
23:00 1023 30.21 852 25.16 16.4 61.4 54 7.1 44.8
23:05 1023 30.21 852 25.16 16.3 61.4 54 7.1 44.8
23:10 1023 30.21 852 25.16 16.2 61.1 55 7.1 44.9
23:15 1023 30.21 852 25.16 16 60.9 55 7 44.7
23:20 1023 30.21 852 25.16 16 60.7 55 7 44.7
23:25 1023 30.21 852 25.16 15.9 60.6 55 7.1 44.8
23:30 1023 30.21 852 25.16 15.8 60.5 56 7.1 44.7
23:35 1023 30.21 852 25.16 15.7 60.3 56 7 44.7
23:40 1023 30.21 852 25.16 15.6 60.1 56 6.9 44.3
23:45 1023 30.21 852 25.16 15.7 60.2 55 6.9 44.3
23:50 1023 30.21 852 25.16 15.7 60.3 55 6.7 44.1
23:55 1023 30.21 852 25.16 15.8 60.5 55 6.8 44.2
24:00 1023 30.21 852 25.16 15.9 60.6 54 6.6 43.9